Weather observations for the past three days for
Jacksonville Municipal Airport
Imperial (Metric)
Date Time (cdt) Wind (mph) Vis. (mi.) Weather Sky Cond. Temperature (ºF) Relative Humidity Wind Chill (°F) Heat Index (°F) Pressure Precipitation (in)
Air Dwpt 6 hour altimeter (in) sea level (mb) 1 hr 3 hr 6 hr
Max. Min.
04 14:35 SW 21 G 32 10.00 Fair and Breezy CLR 76.6 53.6 45% 78 29.61 0.0
04 14:15 SW 20 G 28 10.00 Fair CLR 75.7 53.6 46% 78 29.62 0.0
04 13:55 SW 22 G 30 10.00 Fair and Breezy CLR 75.2 53.2 46% 78 29.63 0.0
04 13:35 SW 17 G 24 10.00 Fair CLR 75.7 53.8 47% 78 29.63 0.0
04 13:15 SW 22 G 25 10.00 Fair and Breezy CLR 75.4 52.9 46% 78 29.63 0.0
04 12:55 SW 20 G 26 10.00 Fair CLR 75 52.5 75.2 59.4 46% 78 29.64 0.0
04 12:35 SW 22 G 31 10.00 Thunderstorm in Vicinity and Breezy CLR 75 52.5 46% 78 29.64 0.0
04 12:15 SW 22 G 32 10.00 Fair and Breezy CLR 73.8 51.1 45% 29.65 0.0
04 11:55 SW 24 G 31 10.00 Fair and Breezy CLR 74.1 51.6 45% 29.65 0.0
04 11:35 SW 22 G 32 10.00 Thunderstorm in Vicinity and Breezy CLR 72.3 51.4 48% 29.66 0.0
04 11:15 S 18 G 25 10.00 Fair CLR 70 52.9 55% 29.66 0.0
04 10:55 SW 16 G 22 10.00 Fair CLR 68.4 52.7 58% 29.67 0.0
04 10:35 S 14 G 23 10.00 Fair CLR 69.1 53.4 58% 29.68 0.0
04 10:15 SW 21 G 25 10.00 Thunderstorm in Vicinity and Breezy SCT120 70.2 53.6 56% 29.68 0.0
04 09:55 S 12 10.00 Mostly Cloudy BKN110 64.8 53.1 66% 29.68 0.0
04 09:35 S 8 10.00 Thunderstorm SCT110 62.2 52.9 72% 29.68 0.0
04 09:15 SW 10 G 16 10.00 Overcast SCT090 OVC110 60.8 52.5 74% 29.68 0.0
04 08:55 S 14 G 21 10.00 Overcast SCT090 OVC110 60.4 52.2 74% 29.68 0.0
04 08:35 SW 13 10.00 Overcast SCT080 OVC120 60.8 52 73% 29.68 0.0
04 08:15 SW 9 10.00 Mostly Cloudy BKN120 61.2 51.8 71% 29.68 0.0
04 07:55 S 10 10.00 Partly Cloudy SCT080 SCT110 61.2 51.4 71% 29.67 0.0
04 07:35 SW 14 10.00 Partly Cloudy SCT080 SCT090 SCT110 59.4 52.3 78% 29.68 0.0
04 07:15 S 10 10.00 Thunderstorm in Vicinity CLR 59.9 51.8 75% 29.69 0.0
04 06:55 S 13 G 17 10.00 Partly Cloudy SCT120 59.2 52 59.2 55.4 77% 29.71 0.0
04 06:35 SW 10 10.00 Partly Cloudy SCT120 57.9 52 81% 29.7 0.0
04 06:15 S 7 10.00 Thunderstorm SCT120 57.6 52 82% 29.69 0.0
04 05:55 SE 5 10.00 Fair CLR 56.7 51.8 84% 29.7 0.0
04 05:35 Calm 10.00 Partly Cloudy SCT120 56.8 51.8 83% 29.7 0.0
04 05:15 SE 6 10.00 Mostly Cloudy BKN120 58.8 51.8 78% 29.71 0.0
04 04:55 Calm 10.00 Partly Cloudy SCT120 56.8 50.9 81% 29.72 0.0
04 04:35 Calm 10.00 Partly Cloudy SCT120 59 50.9 75% 29.72 0.0
04 04:15 S 13 10.00 Partly Cloudy SCT120 57.2 51.1 80% 29.7 0.0
04 03:55 W 5 10.00 Partly Cloudy SCT120 57.4 50.5 78% 29.74 0.0
04 03:35 S 7 10.00 Thunderstorm in Vicinity SCT075 SCT100 BKN120 58.1 50.2 75% 29.72 0.0
04 03:15 S 8 10.00 Thunderstorm in Vicinity SCT075 SCT090 BKN110 57.7 50.5 77% 29.72 0.0
04 02:55 S 6 10.00 Thunderstorm SCT090 BKN110 57.2 50.9 80% 29.72 0.0
04 02:35 S 6 10.00 Mostly Cloudy SCT090 BKN120 58.1 50.7 77% 29.74 0.0
04 02:15 S 10 10.00 Thunderstorm in Vicinity SCT090 SCT110 58.5 50.9 76% 29.75 0.0
04 01:55 S 10 10.00 Thunderstorm SCT080 BKN090 OVC110 58.6 50.2 74% 29.77 0.0
04 01:35 SW 3 10.00 Thunderstorm in Vicinity SCT080 BKN120 58.8 49.6 72% 29.77 0.0
04 01:15 SW 6 10.00 Partly Cloudy SCT120 57 49.8 77% 29.77 0.0
04 00:55 SW 7 10.00 Partly Cloudy SCT110 55.6 50.9 70.7 54.3 84% 29.78 0.0
04 00:35 S 5 10.00 Mostly Cloudy BKN110 55.6 51.1 85% 29.78 0.0
04 00:15 S 3 10.00 Partly Cloudy SCT120 55.4 49.8 82% 29.77 0.0
03 23:55 Calm 10.00 Partly Cloudy SCT080 56.5 50.2 80% 29.76 0.0
03 23:35 Calm 10.00 Fair CLR 58.1 50.4 76% 29.77 0.0
03 23:15 S 3 10.00 Fair CLR 59.7 50.9 73% 29.78 0.0
03 22:55 S 3 10.00 Fair CLR 58.5 51.3 77% 29.79 0.0
03 22:35 S 3 10.00 Fair CLR 59.4 51.8 76% 29.79 0.0
03 22:15 Calm 10.00 Partly Cloudy SCT120 60.8 52 73% 29.8 0.0
03 21:55 Calm 10.00 Mostly Cloudy BKN080 BKN120 61.3 52.3 72% 29.8 0.0
03 21:35 Calm 10.00 Mostly Cloudy SCT080 BKN120 62.8 51.6 67% 29.8 0.0
03 21:15 Calm 10.00 Thunderstorm in Vicinity SCT080 BKN110 63.7 50.7 63% 29.79 0.0
03 20:55 NW 5 10.00 Mostly Cloudy BKN110 63 51.1 65% 29.8 0.0
03 20:35 W 3 10.00 Mostly Cloudy BKN120 64.4 50.9 62% 29.79 0.0
03 20:15 Calm 10.00 Thunderstorm in Vicinity BKN120 64.2 50.9 62% 29.79 0.0
03 19:55 Calm 10.00 Mostly Cloudy BKN120 66 50.4 57% 29.78 0.0
03 19:35 W 5 10.00 Partly Cloudy SCT120 67.1 50.7 56% 29.78 0.0
03 19:15 W 5 10.00 Partly Cloudy SCT120 70.3 48.6 46% 29.77 0.0
03 18:55 W 8 10.00 Fair CLR 70.9 48.7 74.5 64.9 46% 29.78 0.0
03 18:35 W 8 10.00 Fair CLR 70.9 48.6 45% 29.78 0.0
03 18:15 W 13 10.00 Partly Cloudy SCT120 71.6 48 43% 29.79 0.0
03 17:55 W 9 10.00 Partly Cloudy SCT120 72.5 47.5 41% 29.78 0.0
03 17:35 W 15 G 21 10.00 Partly Cloudy SCT120 72.9 47.7 41% 29.78 0.0
03 17:15 W 18 G 26 10.00 Fair CLR 73.4 46.6 39% 29.78 0.0
03 16:55 W 17 G 24 10.00 Partly Cloudy SCT070 73.4 46.2 38% 29.79 0.0
03 16:35 SW 15 G 21 10.00 Partly Cloudy SCT070 73.4 45.9 38% 29.79 0.0
03 16:15 SW 18 G 25 10.00 Partly Cloudy SCT070 74.1 45.5 36% 29.8 0.0
03 15:55 SW 18 G 24 10.00 Fair CLR 73.2 44.4 36% 29.81 0.0
03 15:35 SW 14 G 22 10.00 Fair CLR 71.2 43.2 36% 29.82 0.0
03 15:15 S 21 G 29 10.00 Fair and Breezy CLR 70.9 42.3 36% 29.82 0.0
03 14:55 SW 18 G 26 10.00 Fair CLR 70 41.7 36% 29.84 0.0
03 14:35 SW 23 G 29 10.00 Fair and Breezy CLR 68 41.4 38% 29.84 0.0
03 14:15 SW 17 G 24 10.00 Partly Cloudy SCT110 66.4 40.8 39% 29.85 0.0
03 13:55 SW 16 G 29 10.00 Partly Cloudy SCT110 66.4 39.9 38% 29.86 0.0
03 13:35 S 18 G 28 10.00 Partly Cloudy SCT120 66.2 40.3 39% 29.87 0.0
03 13:15 S 22 G 31 10.00 Partly Cloudy and Breezy SCT100 SCT120 65.8 41 40% 29.87 0.0
03 12:55 S 20 G 31 10.00 Partly Cloudy SCT110 64.6 40.6 65.3 45 42% 29.87 0.0
03 12:35 S 26 G 32 10.00 Partly Cloudy and Windy SCT120 64.8 41.7 43% 29.88 0.0
03 12:15 S 21 G 29 10.00 Partly Cloudy and Breezy SCT120 62.6 40.8 45% 29.91 0.0
03 11:55 S 17 G 28 10.00 Partly Cloudy SCT110 63.1 41.5 45% 29.94 0.0
03 11:35 SW 18 G 26 10.00 Fair CLR 62.6 41.7 47% 29.97 0.0
03 11:15 SW 20 G 29 10.00 Partly Cloudy SCT120 61.5 40.6 46% 29.98 0.0
03 10:55 SW 18 G 22 10.00 Mostly Cloudy BKN120 59.4 40.5 50% 29.99 0.0
03 10:35 S 18 G 24 10.00 Mostly Cloudy BKN120 59 40.1 50% 29.98 0.0
03 10:15 S 16 G 22 10.00 Partly Cloudy SCT120 59.2 39.9 49% 29.99 0.0
03 09:55 S 17 G 23 10.00 Partly Cloudy SCT120 58.8 39.9 50% 30 0.0
03 09:35 SW 14 G 22 10.00 Partly Cloudy SCT120 57.4 39.6 52% 30.01 0.0
03 09:15 S 15 G 21 10.00 Fair CLR 55.8 38.8 53% 30.02 0.0
03 08:55 SW 14 G 20 10.00 Fair CLR 54.5 38.3 55% 30.02 0.0
03 08:35 S 14 10.00 Fair CLR 52.3 38.8 60% 30.02 0.0
03 08:15 S 10 10.00 Fair CLR 49.6 39.4 68% 46 30.02 0.0
03 07:55 S 10 10.00 Fair CLR 48.2 38.7 70% 44 30.03 0.0
03 07:35 S 10 10.00 Fair CLR 46.6 38.1 73% 42 30.03 0.0
03 07:15 S 8 10.00 Fair CLR 46.4 38.3 74% 43 30.04 0.0
03 06:55 S 7 10.00 Fair CLR 45 37.9 46.4 43.7 77% 42 30.04 0.0
03 06:35 S 8 10.00 Fair CLR 44.2 37 76% 40 30.03 0.0
03 06:15 S 8 10.00 Fair CLR 43.7 37 77% 40 30.02 0.0
03 05:35 S 7 10.00 Fair CLR 43.9 36.7 76% 40 30.02 0.0
03 05:15 S 7 10.00 Fair CLR 44.6 36.9 74% 41 30.02 0.0
03 04:55 S 8 10.00 Fair CLR 44.8 36.9 74% 41 30.03 0.0
03 04:35 S 8 10.00 Fair CLR 45.5 36.7 71% 42 30.04 0.0
03 04:15 S 8 10.00 Fair CLR 45.7 36.5 70% 42 30.04 0.0
03 03:55 S 6 10.00 Fair CLR 45.7 36.5 70% 43 30.05 0.0
03 03:35 S 8 10.00 Fair CLR 45.9 36.1 69% 42 30.05 0.0
03 03:15 S 9 10.00 Fair CLR 46 35.8 68% 42 30.05 0.0
03 02:55 S 7 10.00 Fair CLR 45.9 35.2 67% 43 30.05 0.0
03 02:35 S 7 10.00 Fair CLR 45.9 34.3 64% 43 30.05 0.0
03 02:15 S 6 10.00 Fair CLR 45.9 34.2 64% 43 30.06 0.0
03 01:55 S 7 10.00 Fair CLR 46.4 34.2 63% 43 30.06 0.0
03 01:35 S 6 10.00 Fair CLR 45.1 34.2 66% 43 30.06 0.0
03 01:15 S 5 10.00 Fair CLR 46.4 33.8 62% 45 30.07 0.0
03 00:55 S 5 10.00 Fair CLR 46 34.3 56.3 43.2 64% 44 30.08 0.0
03 00:35 S 5 10.00 Fair CLR 43.9 35.2 72% 42 30.08 0.0
03 00:15 S 6 10.00 Fair CLR 45.7 34.5 65% 43 30.08 0.0
02 23:55 S 6 10.00 Fair CLR 45.5 34.7 66% 43 30.08 0.0
02 23:35 S 7 10.00 Fair CLR 44.8 35.1 69% 41 30.08 0.0
02 23:15 S 6 10.00 Fair CLR 43.2 36.5 77% 40 30.08 0.0
02 22:55 S 3 10.00 Fair CLR 44.4 36 72% 30.09 0.0
02 22:35 S 5 10.00 Fair CLR 44.2 36.9 75% 42 30.09 0.0
02 22:15 S 3 10.00 Fair CLR 44.2 37.8 78% 30.09 0.0
02 21:55 Calm 10.00 Fair CLR 45.3 38.8 78% 30.09 0.0
02 21:35 S 3 10.00 Fair CLR 45.5 38.8 78% 30.09 0.0
02 21:15 Calm 10.00 Fair CLR 46.2 36.9 70% 30.09 0.0
02 20:55 Calm 10.00 Fair CLR 47.8 37 66% 30.08 0.0
02 20:35 Calm 10.00 Fair CLR 49.1 36.9 63% 30.08 0.0
02 20:15 Calm 10.00 Fair CLR 51.8 35.2 53% 30.08 0.0
02 19:55 Calm 10.00 Fair CLR 52 37 57% 30.08 0.0
02 19:35 N 3 10.00 Fair CLR 54.7 34.7 47% 30.08 0.0
02 19:15 N 6 10.00 Partly Cloudy SCT070 55.2 33.8 44% 30.07 0.0
02 18:55 N 6 10.00 Partly Cloudy SCT070 56.3 33.4 59 54.1 42% 30.07 0.0
02 18:35 N 7 10.00 Fair CLR 56.5 32.5 40% 30.08 0.0
02 18:15 NW 5 10.00 Partly Cloudy SCT065 56.7 33.4 42% 30.08 0.0
02 17:55 N 7 10.00 Overcast OVC070 56.5 33.6 42% 30.08 0.0
02 17:35 NW 5 G 17 10.00 Mostly Cloudy SCT070 BKN080 57.9 33.6 40% 30.08 0.0
02 17:15 W 6 10.00 Mostly Cloudy SCT070 BKN080 58.3 32.7 38% 30.08 0.0
02 16:55 NW 8 10.00 Mostly Cloudy SCT070 BKN075 57.7 32.9 39% 30.08 0.0
02 16:35 NW 9 10.00 Partly Cloudy SCT070 SCT080 57.7 33.1 39% 30.09 0.0
02 16:15 NW 7 10.00 Partly Cloudy SCT060 SCT080 56.8 33.4 41% 30.09 0.0
02 15:55 N 5 10.00 Mostly Cloudy BKN070 BKN080 57 32.7 40% 30.09 0.0
02 15:35 N 8 10.00 Partly Cloudy SCT060 SCT080 57.6 33.4 40% 30.1 0.0
02 15:15 N 5 10.00 Overcast BKN060 OVC070 57.2 33.6 41% 30.1 0.0
02 14:55 NW 7 10.00 Mostly Cloudy SCT060 BKN090 57.4 34.7 43% 30.11 0.0
02 14:35 NW 12 G 16 10.00 Mostly Cloudy BKN090 55.6 34.2 45% 30.11 0.0
02 14:15 NW 9 10.00 Mostly Cloudy SCT060 BKN090 55.9 33.3 42% 30.11 0.0
02 13:55 NW 8 10.00 Mostly Cloudy SCT060 SCT070 BKN090 56.3 33.8 43% 30.12 0.0
02 13:35 N 8 10.00 Overcast SCT060 BKN070 OVC080 56.5 33.1 41% 30.12 0.0
02 13:15 NE 6 10.00 Mostly Cloudy SCT060 SCT065 BKN080 54.9 33.8 45% 30.12 0.0
02 12:55 N 5 10.00 Mostly Cloudy SCT050 BKN080 BKN090 53.8 32.7 55 42.8 45% 30.13 0.0
02 12:35 N 7 10.00 Mostly Cloudy SCT050 SCT060 BKN075 53.6 35.1 50% 30.13 0.0
02 12:15 NW 6 10.00 Overcast SCT060 BKN070 OVC080 53.6 34.7 49% 30.13 0.0
02 11:55 N 8 10.00 Mostly Cloudy SCT050 SCT060 BKN080 54.7 37.2 52% 30.13 0.0
02 11:35 E 5 10.00 Partly Cloudy SCT043 SCT050 SCT060 54.7 37.9 53% 30.14 0.0
02 11:15 NE 6 10.00 Partly Cloudy SCT048 53.2 38.1 57% 30.14 0.0
02 10:55 NE 3 10.00 Mostly Cloudy SCT034 BKN090 52.5 37.6 57% 30.14 0.0
02 10:35 E 5 10.00 Partly Cloudy SCT090 52.2 39.9 63% 30.14 0.0
02 10:15 NE 5 10.00 Fair CLR 51.3 40.1 66% 30.14 0.0
02 09:55 NE 5 10.00 Partly Cloudy SCT090 49.5 40.6 72% 48 30.14 0.0
02 09:35 NE 6 10.00 Overcast OVC090 47.7 40.3 76% 45 30.14 0.0
02 09:15 E 8 10.00 Overcast OVC090 47.3 40.6 78% 44 30.14 0.0
02 08:55 E 8 10.00 Overcast OVC090 46.2 41.4 83% 43 30.13 0.0
02 08:35 NE 8 10.00 Overcast OVC090 45.1 40.8 85% 41 30.13 0.0
02 08:15 NE 8 10.00 Overcast OVC090 44.6 41.2 88% 41 30.12 0.0
02 07:55 NE 8 10.00 Overcast OVC100 44.1 41.2 90% 40 30.12 0.0
02 07:35 NE 7 10.00 Overcast OVC100 43.7 41.5 92% 40 30.11 0.0
02 07:15 E 8 10.00 Overcast OVC100 43 41.2 93% 39 30.1 0.0
02 06:55 E 8 10.00 Overcast OVC100 42.6 41.7 44.4 40.5 97% 38 30.1 0.0
02 06:35 NE 6 10.00 Overcast OVC100 42.3 41.7 98% 39 30.09 0.0
02 06:15 NE 8 10.00 Overcast OVC100 42.3 40.1 92% 38 30.09 0.0
02 05:55 N 6 10.00 Overcast OVC100 42.1 40.3 93% 39 30.09 0.0
02 05:35 Calm 10.00 Overcast OVC100 42.4 39.4 89% 30.08 0.0
02 05:15 N 3 10.00 Overcast OVC100 43 38.8 85% 30.08 0.0
02 04:55 NE 3 10.00 Overcast OVC100 43.5 38.8 84% 30.08 0.0
02 04:35 NE 5 10.00 Overcast OVC100 43.5 39.2 85% 41 30.08 0.0
02 04:15 N 6 10.00 Overcast OVC100 43.2 39.4 87% 40 30.08 0.0
02 03:55 NE 7 10.00 Overcast OVC100 43.7 40.6 89% 40 30.07 0.0
02 03:35 NE 5 10.00 Overcast OVC100 43.2 41.7 95% 41 30.07 0.0
02 03:15 Calm 10.00 Overcast OVC100 41.9 41.9 100% 30.07 0.0
02 02:55 Calm 10.00 Overcast OVC100 41.5 41.5 100% 30.07 0.0
02 02:35 Calm 10.00 Overcast OVC100 41.4 41.4 100% 30.06 0.0
02 02:15 Calm 10.00 Overcast OVC100 40.8 40.8 100% 30.06 0.0
02 01:55 Calm 10.00 Overcast OVC100 41.4 41.2 99% 30.06 0.0
02 01:35 Calm 10.00 Overcast OVC100 41 41 100% 30.07 0.0
02 01:15 Calm 10.00 Mostly Cloudy BKN100 41 41 100% 30.07 0.0
02 00:55 NE 3 10.00 Mostly Cloudy BKN100 41.7 41.2 54 41 98% 30.07 0.0
02 00:35 NE 5 10.00 Partly Cloudy SCT100 42.4 39 88% 40 30.07 0.0
02 00:15 Calm 10.00 Fair CLR 42.6 40.3 91% 30.07 0.0
01 23:55 Calm 10.00 Partly Cloudy SCT110 41.9 41.4 98% 30.07 0.0
01 23:35 Calm 10.00 Partly Cloudy SCT110 43.7 40.1 87% 30.07 0.0
01 23:15 Calm 10.00 Mostly Cloudy BKN110 44.6 40.3 85% 30.07 0.0
01 22:55 Calm 10.00 Mostly Cloudy BKN110 45.1 40.5 84% 30.07 0.0
01 22:35 Calm 10.00 Overcast OVC110 45.1 40.1 83% 30.07 0.0
01 22:15 Calm 10.00 Mostly Cloudy BKN110 46 40.1 80% 30.07 0.0
01 21:55 Calm 10.00 Fair CLR 45.1 40.1 83% 30.07 0.0
01 21:35 Calm 10.00 Fair CLR 44.6 39.6 83% 30.05 0.0
01 21:15 NE 5 10.00 Partly Cloudy SCT080 SCT090 47.1 39.6 75% 46 30.05 0.0
01 20:55 NE 3 10.00 Mostly Cloudy BKN080 48.2 39.7 73% 30.04 0.0
01 20:15 N 8 10.00 Mostly Cloudy BKN085 50.5 39 65% 30.02 0.0
01 19:55 NE 6 10.00 Overcast SCT065 OVC095 51.6 39.4 63% 30.02 0.0
01 19:35 N 6 10.00 Overcast OVC065 52.7 39 60% 30.02 0.0
01 19:15 N 6 10.00 Mostly Cloudy BKN075 BKN090 53.1 38.8 59% 30.01 0.0
01 18:55 N 8 10.00 Overcast BKN060 OVC075 54 38.5 59.5 54 56% 30 0.0
01 18:35 N 5 10.00 Overcast SCT050 BKN065 OVC070 54.9 37.4 52% 30 0.0
01 18:15 NW 10 10.00 Overcast OVC070 55.4 37.2 51% 30.01 0.0
01 17:55 W 8 10.00 Overcast BKN070 OVC080 56.3 36.1 47% 30.01 0.0
01 17:35 N 7 10.00 Overcast BKN070 OVC080 56.7 34.9 44% 30.01 0.0
01 17:15 NW 7 10.00 Overcast OVC080 56.7 34.5 43% 30.01 0.0
01 16:55 NW 7 10.00 Overcast SCT070 OVC080 57.6 34.7 42% 30.01 0.0
01 16:35 NW 12 10.00 Overcast SCT050 OVC075 57.2 33.3 41% 30.02 0.0
01 16:15 W 8 10.00 Mostly Cloudy BKN075 BKN085 57.2 30.7 37% 30.02 0.0
01 15:55 W 5 10.00 Mostly Cloudy SCT080 BKN110 57.9 32.4 38% 30.02 0.0
01 15:35 W 7 10.00 Mostly Cloudy SCT050 SCT075 BKN110 59.4 34 39% 30.02 0.0
01 15:15 NW 6 10.00 Overcast SCT060 BKN075 OVC090 56.8 32.9 40% 30.04 0.0
01 14:55 NW 6 10.00 Mostly Cloudy BKN090 57 33.1 41% 30.05 0.0
Date Time (cdt) Wind (mph) Vis. (mi.) Weather Sky Cond. Air Dwpt Max. Min. Relative Humidity Wind Chill (°F) Heat Index (°F) altimeter (in) sea level (mb) 1 hr 3 hr 6 hr
6 hour
Temperature (ºF) Pressure Precipitation (in)